Time;durP1;ratioP1;P1;durP2;ratioP2;P2;SDS_P1;SDS_P2;PMS_P1;PMS_P2;Temp;Humidity;BMP_temperature;BMP_pressure;BME280_temperature;BME280_humidity;BME280_pressure;Samples;Min_cycle;Max_cycle;Signal;HPM_P1;HPM_P2
2022/11/05 00:10:06;;;;;;;26.88;16.25;;;6.80;99.90;;;;;;5119847;27;20051;-72
2022/11/05 00:18:01;;;;;;;14.80;9.40;;;6.90;99.90;;;;;;5120601;27;20040;-71
2022/11/05 00:20:26;;;;;;;14.23;9.32;;;6.90;99.90;;;;;;5121381;27;20149;-71
2022/11/05 00:25:59;;;;;;;12.18;7.88;;;6.90;99.90;;;;;;5121732;27;20452;-72
2022/11/05 00:28:26;;;;;;;14.85;8.32;;;6.90;99.90;;;;;;5113994;27;20553;-72
2022/11/05 00:30:52;;;;;;;11.63;8.85;;;6.90;99.90;;;;;;5083072;27;20162;-72
2022/11/05 00:33:18;;;;;;;11.98;9.10;;;6.90;99.90;;;;;;5120138;27;20551;-72
2022/11/05 00:35:44;;;;;;;9.88;7.40;;;6.90;99.90;;;;;;5102322;27;20043;-72
2022/11/05 00:38:10;;;;;;;9.57;7.45;;;6.90;99.90;;;;;;5101896;27;20043;-72
2022/11/05 00:40:36;;;;;;;10.90;7.35;;;6.80;99.90;;;;;;5136534;27;20076;-72
2022/11/05 00:45:46;;;;;;;8.85;5.97;;;6.70;99.90;;;;;;5118449;27;20055;-71
2022/11/05 00:50:59;;;;;;;15.10;8.15;;;6.70;99.90;;;;;;5149735;27;20043;-71
2022/11/05 00:53:25;;;;;;;12.05;5.72;;;6.60;99.90;;;;;;5084717;27;20509;-71
2022/11/05 00:55:51;;;;;;;8.35;5.70;;;6.60;99.90;;;;;;5140285;27;20051;-71
2022/11/05 00:58:19;;;;;;;10.57;5.43;;;6.50;99.90;;;;;;5120927;27;20035;-72
2022/11/05 01:00:53;;;;;;;11.40;5.80;;;6.50;99.90;;;;;;5126747;27;20505;-72
2022/11/05 01:03:21;;;;;;;10.20;5.65;;;6.50;99.90;;;;;;5103570;27;20035;-71
2022/11/05 01:05:53;;;;;;;8.88;5.45;;;6.50;99.90;;;;;;5138438;27;20057;-72
2022/11/05 01:08:21;;;;;;;12.50;6.07;;;6.50;99.90;;;;;;5121329;27;20103;-72
2022/11/05 01:10:53;;;;;;;11.82;7.20;;;6.50;99.90;;;;;;5132849;27;20055;-72
2022/11/05 01:13:24;;;;;;;13.70;7.22;;;6.50;99.90;;;;;;5119046;27;20047;-72
2022/11/05 01:15:51;;;;;;;9.48;5.20;;;6.50;99.90;;;;;;5100540;27;20709;-72
2022/11/05 01:18:18;;;;;;;12.38;6.30;;;6.40;99.90;;;;;;5084729;27;20039;-72
2022/11/05 01:20:44;;;;;;;13.00;6.22;;;6.40;99.90;;;;;;5115172;27;20103;-72
2022/11/05 01:23:10;;;;;;;10.77;5.85;;;6.40;99.90;;;;;;5104621;27;20062;-72
2022/11/05 01:25:36;;;;;;;10.52;6.22;;;6.40;99.90;;;;;;5102208;27;20117;-71
2022/11/05 01:28:03;;;;;;;10.15;5.50;;;6.30;99.90;;;;;;5099953;27;20486;-72
2022/11/05 01:30:32;;;;;;;10.82;6.32;;;6.30;99.90;;;;;;5106489;27;20046;-71
2022/11/05 01:32:57;;;;;;;8.55;4.43;;;6.30;99.90;;;;;;5120127;27;20047;-71
2022/11/05 01:35:23;;;;;;;15.35;7.60;;;6.30;99.90;;;;;;5125530;27;20505;-72
2022/11/05 01:37:49;;;;;;;20.77;11.02;;;6.20;99.90;;;;;;5095650;27;20035;-71
2022/11/05 01:40:19;;;;;;;68.22;10.30;;;6.20;99.90;;;;;;5086665;27;20033;-72
2022/11/05 01:42:45;;;;;;;39.88;9.10;;;6.20;99.90;;;;;;5139580;27;20621;-71
2022/11/05 01:45:12;;;;;;;34.40;8.65;;;6.10;99.90;;;;;;5102573;27;20058;-72
2022/11/05 01:47:56;;;;;;;16.75;5.63;;;6.00;99.90;;;;;;5093313;27;20046;-71
2022/11/05 01:50:46;;;;;;;9.18;4.55;;;6.00;99.90;;;;;;5104372;27;20039;-71
2022/11/05 01:53:43;;;;;;;36.72;9.55;;;6.00;99.90;;;;;;5141093;27;20053;-71
2022/11/05 01:56:17;;;;;;;8.48;4.85;;;6.00;99.90;;;;;;5117318;27;20181;-71
2022/11/05 01:59:07;;;;;;;10.30;5.10;;;5.90;99.90;;;;;;5117531;27;20043;-72
2022/11/05 02:01:33;;;;;;;40.25;12.32;;;5.90;99.90;;;;;;5102865;27;20043;-72
2022/11/05 02:04:03;;;;;;;7.25;4.95;;;5.80;99.90;;;;;;5116493;27;20481;-72
2022/11/05 02:06:36;;;;;;;9.05;4.13;;;5.80;99.90;;;;;;5130671;27;20043;-71
2022/11/05 02:09:32;;;;;;;9.55;6.00;;;5.80;99.90;;;;;;5118327;27;20039;-71
2022/11/05 02:11:59;;;;;;;9.13;4.80;;;5.80;99.90;;;;;;5122867;27;20039;-72
2022/11/05 02:14:24;;;;;;;8.00;5.45;;;5.80;99.90;;;;;;5107188;27;20119;-72
2022/11/05 02:17:14;;;;;;;13.20;5.80;;;5.80;99.90;;;;;;5120332;27;20054;-71
2022/11/05 02:20:17;;;;;;;11.18;5.75;;;5.80;99.90;;;;;;5107817;27;20655;-71
2022/11/05 02:22:45;;;;;;;14.60;8.65;;;5.80;99.90;;;;;;5104563;27;20411;-71
2022/11/05 02:25:37;;;;;;;10.20;6.18;;;5.80;99.90;;;;;;5124413;27;20129;-72
2022/11/05 02:28:08;;;;;;;11.35;6.88;;;5.80;99.90;;;;;;5102915;27;20031;-71
2022/11/05 02:30:51;;;;;;;20.02;9.95;;;5.70;99.90;;;;;;5102921;27;20043;-72
2022/11/05 02:33:35;;;;;;;10.40;8.30;;;5.70;99.90;;;;;;5146379;27;20346;-71
2022/11/05 02:36:16;;;;;;;29.80;14.23;;;5.70;99.90;;;;;;5114211;27;20050;-72
2022/11/05 02:39:01;;;;;;;18.27;11.57;;;5.70;99.90;;;;;;5100544;27;20049;-71
2022/11/05 02:41:30;;;;;;;15.02;8.57;;;5.70;99.90;;;;;;5107228;27;20046;-71
2022/11/05 02:44:15;;;;;;;14.80;9.57;;;5.80;99.90;;;;;;5099452;27;20051;-71
2022/11/05 02:46:50;;;;;;;13.20;9.25;;;5.80;99.90;;;;;;5123568;27;20130;-71
2022/11/05 02:50:02;;;;;;;14.93;9.60;;;5.90;99.90;;;;;;5125545;27;20109;-72
2022/11/05 02:52:39;;;;;;;15.30;8.98;;;5.90;99.90;;;;;;5101274;27;20055;-72
2022/11/05 02:55:25;;;;;;;11.95;8.73;;;5.90;99.90;;;;;;5135555;27;20118;-72
2022/11/05 02:57:51;;;;;;;12.68;9.23;;;5.90;99.90;;;;;;5140628;27;20043;-72
2022/11/05 03:00:54;;;;;;;14.00;10.10;;;5.90;99.90;;;;;;5108859;27;20058;-71
2022/11/05 03:03:39;;;;;;;12.05;8.88;;;5.90;99.90;;;;;;5041022;28;20130;-72
2022/11/05 03:06:20;;;;;;;12.55;9.32;;;5.90;99.90;;;;;;5148641;27;20516;-71
2022/11/05 03:09:04;;;;;;;13.70;9.23;;;5.90;99.90;;;;;;5139722;27;20081;-71
2022/11/05 03:11:36;;;;;;;17.25;10.55;;;5.90;99.90;;;;;;5108081;27;20174;-72
2022/11/05 03:14:16;;;;;;;14.48;8.77;;;5.90;99.90;;;;;;5106560;27;20051;-71
2022/11/05 03:16:54;;;;;;;12.85;9.00;;;5.90;99.90;;;;;;5098207;27;20047;-71
2022/11/05 03:19:34;;;;;;;10.50;8.57;;;5.90;99.90;;;;;;5096148;27;20040;-69
2022/11/05 03:22:14;;;;;;;11.90;8.35;;;5.90;99.90;;;;;;5110097;27;20055;-69
2022/11/05 03:24:50;;;;;;;11.55;8.00;;;5.80;99.90;;;;;;5132295;27;20099;-69
2022/11/05 03:27:22;;;;;;;10.32;7.60;;;5.80;99.90;;;;;;5097131;27;20066;-69
2022/11/05 03:29:53;;;;;;;12.10;8.15;;;5.80;99.90;;;;;;5102720;27;20107;-69
2022/11/05 03:32:21;;;;;;;10.63;7.60;;;5.80;99.90;;;;;;5135510;27;20047;-69
2022/11/05 03:35:00;;;;;;;18.23;9.57;;;5.80;99.90;;;;;;5080311;27;20107;-69
2022/11/05 03:37:31;;;;;;;9.82;7.47;;;5.80;99.90;;;;;;5100672;27;20054;-69
2022/11/05 03:40:00;;;;;;;11.32;7.85;;;5.80;99.90;;;;;;5114789;27;20493;-69
2022/11/05 03:42:32;;;;;;;11.43;8.05;;;5.80;99.90;;;;;;5106236;27;20058;-69
2022/11/05 03:45:04;;;;;;;13.45;8.88;;;5.80;99.90;;;;;;5136380;27;20130;-69
2022/11/05 03:47:35;;;;;;;14.65;8.18;;;5.80;99.90;;;;;;5102565;27;20047;-69
2022/11/05 03:50:06;;;;;;;11.55;8.07;;;5.80;99.90;;;;;;5123054;27;20051;-69
2022/11/05 03:52:39;;;;;;;13.38;8.43;;;5.80;99.90;;;;;;5126069;27;20153;-69
2022/11/05 03:55:05;;;;;;;13.10;8.50;;;5.80;99.90;;;;;;5139708;27;20035;-69
2022/11/05 03:57:37;;;;;;;11.52;8.48;;;5.80;99.90;;;;;;5124079;27;20076;-69
2022/11/05 04:00:07;;;;;;;13.73;9.02;;;5.70;99.90;;;;;;5112304;27;20505;-69
2022/11/05 04:02:33;;;;;;;14.75;9.90;;;5.70;99.90;;;;;;5123069;27;20086;-69
2022/11/05 04:04:59;;;;;;;10.13;8.52;;;5.70;99.90;;;;;;5110222;27;20125;-69
2022/11/05 04:18:25;;;;;;;15.05;12.68;;;5.70;99.90;;;;;;5115572;27;20043;-69
2022/11/05 04:26:22;;;;;;;17.77;12.02;;;5.70;99.90;;;;;;5126731;27;20095;-69
2022/11/05 04:31:37;;;;;;;14.40;11.10;;;5.70;99.90;;;;;;5121987;27;20043;-69
2022/11/05 04:34:03;;;;;;;16.58;12.13;;;5.70;99.90;;;;;;5111050;27;20121;-71
2022/11/05 04:36:32;;;;;;;13.55;10.75;;;5.70;99.90;;;;;;5114869;27;20065;-69
2022/11/05 04:39:00;;;;;;;16.95;11.35;;;5.70;99.90;;;;;;5114035;27;20047;-69
2022/11/05 04:41:26;;;;;;;12.88;11.52;;;5.70;99.90;;;;;;5125234;27;20239;-69
2022/11/05 04:43:52;;;;;;;16.70;11.68;;;5.70;99.90;;;;;;5070477;27;20179;-69
2022/11/05 04:46:17;;;;;;;16.02;11.10;;;5.70;99.90;;;;;;5114166;27;20090;-69
2022/11/05 04:48:46;;;;;;;24.75;16.15;;;5.70;99.90;;;;;;5106367;27;20043;-69
2022/11/05 04:51:12;;;;;;;13.60;11.70;;;5.70;99.90;;;;;;5107760;27;20043;-69
2022/11/05 04:53:38;;;;;;;15.27;11.13;;;5.70;99.90;;;;;;5097112;27;20054;-69
2022/11/05 04:56:13;;;;;;;15.45;11.90;;;5.60;99.90;;;;;;5068965;27;20254;-69
2022/11/05 04:58:41;;;;;;;15.32;12.57;;;5.70;99.90;;;;;;5146971;27;20051;-70
2022/11/05 05:01:14;;;;;;;14.15;11.55;;;5.60;99.90;;;;;;5106370;27;20058;-69
2022/11/05 05:03:40;;;;;;;12.75;10.25;;;5.60;99.90;;;;;;5144928;27;20043;-69
2022/11/05 05:06:06;;;;;;;17.80;11.43;;;5.60;99.90;;;;;;5110115;27;20051;-69
2022/11/05 05:08:32;;;;;;;17.00;13.20;;;5.60;99.90;;;;;;5121788;27;20078;-69
2022/11/05 05:11:10;;;;;;;14.05;10.40;;;5.60;99.90;;;;;;5119923;27;20078;-69
2022/11/05 05:13:36;;;;;;;12.65;10.90;;;5.60;99.90;;;;;;5119829;27;20050;-69
2022/11/05 05:16:07;;;;;;;16.40;11.60;;;5.50;99.90;;;;;;5078004;27;20039;-69
2022/11/05 05:18:33;;;;;;;15.60;10.70;;;5.60;99.90;;;;;;5097641;28;20035;-69
2022/11/05 05:23:47;;;;;;;16.65;11.68;;;5.50;99.90;;;;;;5113633;27;20055;-69
2022/11/05 05:26:13;;;;;;;11.48;9.40;;;5.50;99.90;;;;;;5082364;28;20043;-69
2022/11/05 05:28:39;;;;;;;14.38;11.55;;;5.50;99.90;;;;;;5098780;27;20043;-72
2022/11/05 05:31:05;;;;;;;17.38;12.93;;;5.50;99.90;;;;;;5096820;27;20055;-71
2022/11/05 05:33:31;;;;;;;20.02;17.80;;;5.50;99.90;;;;;;5117512;27;20118;-72
2022/11/05 05:35:57;;;;;;;20.70;18.58;;;5.50;99.90;;;;;;5152174;27;20317;-72
2022/11/05 05:38:24;;;;;;;16.45;14.52;;;5.50;99.90;;;;;;5102840;27;20054;-71
2022/11/05 05:40:50;;;;;;;14.00;10.70;;;5.60;99.90;;;;;;5101888;28;20036;-72
2022/11/05 05:43:16;;;;;;;17.25;11.48;;;5.50;99.90;;;;;;5140832;27;20043;-71
2022/11/05 05:45:42;;;;;;;18.42;10.77;;;5.60;99.90;;;;;;5092092;28;20047;-72
2022/11/05 05:48:08;;;;;;;13.05;10.40;;;5.60;99.90;;;;;;5094442;28;20494;-73
2022/11/05 05:50:34;;;;;;;16.35;10.95;;;5.60;99.90;;;;;;5072828;28;20075;-72
2022/11/05 05:52:59;;;;;;;12.95;10.40;;;5.60;99.90;;;;;;5112929;27;20759;-72
2022/11/05 05:55:25;;;;;;;16.95;11.93;;;5.60;99.90;;;;;;5092938;28;20039;-72
2022/11/05 05:57:54;;;;;;;11.40;9.77;;;5.60;99.90;;;;;;5131093;27;20745;-73
2022/11/05 06:00:20;;;;;;;14.40;10.52;;;5.60;99.90;;;;;;5077301;28;20047;-72
2022/11/05 06:02:45;;;;;;;13.30;10.30;;;5.50;99.90;;;;;;5101168;27;20120;-72
2022/11/05 06:05:11;;;;;;;12.82;10.07;;;5.50;99.90;;;;;;5118270;27;20401;-72
2022/11/05 06:07:37;;;;;;;12.50;10.82;;;5.50;99.90;;;;;;5155906;27;20447;-72
2022/11/05 06:10:03;;;;;;;14.55;10.13;;;5.50;99.90;;;;;;5114133;27;20085;-73
2022/11/05 06:12:29;;;;;;;14.70;11.55;;;5.50;99.90;;;;;;5086951;28;20563;-72
2022/11/05 06:14:57;;;;;;;12.32;10.73;;;5.50;99.90;;;;;;5104477;27;20553;-72
2022/11/05 06:17:23;;;;;;;14.10;11.20;;;5.50;99.90;;;;;;5098621;28;20055;-72
2022/11/05 06:19:49;;;;;;;16.80;12.05;;;5.40;99.90;;;;;;5084945;28;20040;-72
2022/11/05 06:22:15;;;;;;;14.15;11.60;;;5.50;99.90;;;;;;5130221;27;20046;-72
2022/11/05 06:24:41;;;;;;;13.40;11.48;;;5.50;99.90;;;;;;5102199;28;20067;-72
2022/11/05 06:27:06;;;;;;;16.88;13.63;;;5.50;99.90;;;;;;5123207;27;20297;-72
2022/11/05 06:29:32;;;;;;;16.35;12.57;;;5.50;99.90;;;;;;5105993;27;20428;-72
2022/11/05 06:32:00;;;;;;;14.52;12.80;;;5.50;99.90;;;;;;5113537;27;20588;-72
2022/11/05 06:34:26;;;;;;;19.33;12.40;;;5.50;99.90;;;;;;5084553;28;20115;-72
2022/11/05 06:36:52;;;;;;;15.77;12.70;;;5.50;99.90;;;;;;5115074;27;20772;-73
2022/11/05 06:39:17;;;;;;;17.15;13.27;;;5.50;99.90;;;;;;5104720;28;20092;-72
2022/11/05 06:41:43;;;;;;;13.98;11.80;;;5.50;99.90;;;;;;5078234;27;20043;-72
2022/11/05 06:44:09;;;;;;;20.05;16.20;;;5.50;99.90;;;;;;5089617;28;20501;-72
2022/11/05 06:46:35;;;;;;;25.45;17.15;;;5.50;99.90;;;;;;5129589;27;20537;-73
2022/11/05 06:49:01;;;;;;;15.90;13.48;;;5.40;99.90;;;;;;5109546;28;20150;-72
2022/11/05 06:51:27;;;;;;;14.23;12.27;;;5.50;99.90;;;;;;5079123;27;20039;-72
2022/11/05 06:53:54;;;;;;;14.23;12.80;;;5.50;99.90;;;;;;5118187;27;20475;-72
2022/11/05 06:56:19;;;;;;;15.75;12.98;;;5.50;99.90;;;;;;5096739;28;20071;-72
2022/11/05 06:58:45;;;;;;;16.95;13.30;;;5.50;99.90;;;;;;5112660;27;20069;-72
2022/11/05 07:01:11;;;;;;;17.55;13.10;;;5.50;99.90;;;;;;5096320;28;20074;-72
2022/11/05 07:03:37;;;;;;;15.32;13.13;;;5.50;99.90;;;;;;5091512;27;20051;-72
2022/11/05 07:06:05;;;;;;;15.68;13.75;;;5.50;99.90;;;;;;5129562;27;20043;-72
2022/11/05 07:08:33;;;;;;;17.00;14.60;;;5.50;99.90;;;;;;5118731;27;20115;-69
2022/11/05 07:11:02;;;;;;;14.55;12.60;;;5.50;99.90;;;;;;5079743;27;20120;-73
2022/11/05 07:13:29;;;;;;;15.38;13.70;;;5.60;99.90;;;;;;5098133;27;20077;-72
2022/11/05 07:15:58;;;;;;;14.23;11.65;;;5.60;99.90;;;;;;5117042;27;20792;-72
2022/11/05 07:18:24;;;;;;;17.35;12.55;;;5.60;99.90;;;;;;5124055;27;20042;-74
2022/11/05 07:20:49;;;;;;;16.75;13.57;;;5.60;99.90;;;;;;5086162;27;20046;-74
2022/11/05 07:23:15;;;;;;;16.80;14.55;;;5.60;99.90;;;;;;5095450;27;20599;-74
2022/11/05 07:25:45;;;;;;;14.85;13.25;;;5.70;99.90;;;;;;5098710;27;20035;-73
2022/11/05 07:28:11;;;;;;;17.47;15.63;;;5.60;99.90;;;;;;5103251;27;20387;-74
2022/11/05 07:30:37;;;;;;;19.02;15.05;;;5.70;99.90;;;;;;5148412;27;20304;-74
2022/11/05 07:33:03;;;;;;;20.30;17.52;;;5.70;99.90;;;;;;5103163;27;20081;-74
2022/11/05 07:35:29;;;;;;;17.33;15.00;;;5.70;99.90;;;;;;5109043;27;20066;-73
2022/11/05 07:38:01;;;;;;;18.65;14.52;;;5.70;99.90;;;;;;5131906;27;20068;-73
2022/11/05 07:40:28;;;;;;;15.88;14.10;;;5.80;99.90;;;;;;5109806;27;20227;-74
2022/11/05 07:42:56;;;;;;;17.50;15.55;;;5.80;99.90;;;;;;5091541;27;20058;-73
2022/11/05 07:45:23;;;;;;;18.30;14.32;;;5.90;99.90;;;;;;5101771;27;20054;-73
2022/11/05 07:47:51;;;;;;;15.15;13.55;;;5.90;99.90;;;;;;5093567;27;20059;-73
2022/11/05 07:50:19;;;;;;;16.25;13.77;;;6.00;99.90;;;;;;5093516;27;20530;-73
2022/11/05 07:52:45;;;;;;;14.40;13.00;;;6.10;99.90;;;;;;5111321;27;20056;-73
2022/11/05 07:55:12;;;;;;;13.88;12.40;;;6.20;99.90;;;;;;5114714;27;20046;-73
2022/11/05 07:57:46;;;;;;;15.75;13.13;;;6.20;99.90;;;;;;5118778;27;20085;-73
2022/11/05 08:00:14;;;;;;;13.65;11.70;;;6.30;99.90;;;;;;5119526;27;20063;-73
2022/11/05 08:02:41;;;;;;;14.68;11.95;;;6.30;99.90;;;;;;5070276;27;20223;-73
2022/11/05 08:05:08;;;;;;;14.38;11.90;;;6.40;99.90;;;;;;5094297;28;20044;-69
2022/11/05 08:07:34;;;;;;;15.50;11.25;;;6.50;99.90;;;;;;5124469;27;20135;-69
2022/11/05 08:10:02;;;;;;;14.80;12.68;;;6.50;99.90;;;;;;5117942;27;20126;-69
2022/11/05 08:12:31;;;;;;;13.30;11.68;;;6.60;99.90;;;;;;5138754;27;20134;-73
2022/11/05 08:14:57;;;;;;;15.57;12.60;;;6.60;99.90;;;;;;5098525;27;20088;-73
2022/11/05 08:17:22;;;;;;;13.90;11.23;;;6.70;99.90;;;;;;5088002;27;20059;-69
2022/11/05 08:19:48;;;;;;;14.75;11.45;;;6.70;99.90;;;;;;5128639;27;20059;-69
2022/11/05 08:22:14;;;;;;;12.25;10.18;;;6.80;99.90;;;;;;5101042;27;20043;-69
2022/11/05 08:24:40;;;;;;;11.52;9.82;;;6.90;99.90;;;;;;5098767;27;20479;-69
2022/11/05 08:27:05;;;;;;;11.25;10.15;;;6.90;99.90;;;;;;5112656;27;20047;-74
2022/11/05 08:29:31;;;;;;;14.10;10.25;;;7.10;99.90;;;;;;5126494;27;20390;-74
2022/11/05 08:31:57;;;;;;;13.85;10.80;;;7.10;99.90;;;;;;5119707;27;20039;-74
2022/11/05 08:34:23;;;;;;;13.25;10.30;;;7.20;99.90;;;;;;5128152;27;20101;-74
2022/11/05 08:36:51;;;;;;;10.77;9.68;;;7.30;99.90;;;;;;5131704;27;20130;-74
2022/11/05 08:39:17;;;;;;;12.05;10.65;;;7.30;99.90;;;;;;5110007;27;20090;-74
2022/11/05 08:41:44;;;;;;;12.88;10.27;;;7.40;99.90;;;;;;5099898;27;20747;-74
2022/11/05 08:44:10;;;;;;;13.57;9.93;;;7.50;99.90;;;;;;5114703;27;20091;-74
2022/11/05 08:46:36;;;;;;;11.48;9.32;;;7.60;99.90;;;;;;5090473;27;20054;-74
2022/11/05 08:49:03;;;;;;;12.65;9.25;;;7.60;99.90;;;;;;5114152;27;20490;-74
2022/11/05 08:51:29;;;;;;;10.95;9.30;;;7.70;99.90;;;;;;5093354;27;20052;-74
2022/11/05 08:53:55;;;;;;;12.18;10.35;;;7.80;99.90;;;;;;5143886;27;20482;-74
2022/11/05 08:56:22;;;;;;;10.15;8.98;;;7.80;99.90;;;;;;5115380;27;20051;-74
2022/11/05 08:58:50;;;;;;;11.48;8.90;;;7.90;99.90;;;;;;5125502;27;20056;-74
2022/11/05 09:01:16;;;;;;;13.82;10.30;;;7.90;99.90;;;;;;5080709;27;20074;-74
2022/11/05 09:03:41;;;;;;;12.88;9.57;;;8.00;99.90;;;;;;5113091;27;20562;-74
2022/11/05 09:06:10;;;;;;;11.60;9.52;;;8.00;99.90;;;;;;5084094;27;20066;-74
2022/11/05 09:08:36;;;;;;;12.63;9.30;;;8.10;99.90;;;;;;5096462;27;20092;-74
2022/11/05 09:11:10;;;;;;;11.98;9.20;;;8.10;99.90;;;;;;5101753;27;20035;-74
2022/11/05 09:13:36;;;;;;;12.55;9.70;;;8.20;99.90;;;;;;5117755;27;20087;-74
2022/11/05 09:16:02;;;;;;;11.70;9.68;;;8.20;99.90;;;;;;5101271;27;20039;-74
2022/11/05 09:18:31;;;;;;;9.68;8.23;;;8.30;99.90;;;;;;5108978;27;20739;-74
2022/11/05 09:20:57;;;;;;;10.20;8.55;;;8.30;99.90;;;;;;5124469;27;20044;-74
2022/11/05 09:23:23;;;;;;;11.02;8.60;;;8.40;99.90;;;;;;5083065;27;20039;-70
2022/11/05 09:25:49;;;;;;;9.50;7.28;;;8.50;99.90;;;;;;5111724;27;20044;-70
2022/11/05 09:28:20;;;;;;;11.85;8.88;;;8.50;99.90;;;;;;5143614;27;20039;-74
2022/11/05 09:30:48;;;;;;;12.23;8.35;;;8.60;99.90;;;;;;5148528;27;20065;-75
2022/11/05 09:33:17;;;;;;;11.98;7.60;;;8.70;99.90;;;;;;5115748;27;20051;-74
2022/11/05 09:35:43;;;;;;;8.27;7.43;;;8.70;99.90;;;;;;5115214;27;20054;-74
2022/11/05 09:38:09;;;;;;;11.10;7.30;;;8.80;99.90;;;;;;5104036;27;20039;-75
2022/11/05 09:40:53;;;;;;;9.57;7.80;;;8.90;99.90;;;;;;5079339;27;20549;-75
2022/11/05 09:43:23;;;;;;;11.50;7.75;;;8.90;99.90;;;;;;5099551;27;20131;-75
2022/11/05 09:45:51;;;;;;;;;;;9.00;99.90;;;;;;5113376;27;20057;-74
2022/11/05 09:48:22;;;;;;;8.07;7.28;;;9.00;99.90;;;;;;5132792;27;19926;-71
2022/11/05 09:50:49;;;;;;;9.57;6.78;;;9.10;99.90;;;;;;5157526;27;20047;-70
2022/11/05 09:53:18;;;;;;;8.77;6.72;;;9.20;99.90;;;;;;5130116;27;20070;-71
2022/11/05 09:55:53;;;;;;;11.10;8.48;;;9.30;99.90;;;;;;5093482;27;20485;-74
2022/11/05 09:58:34;;;;;;;9.88;7.15;;;9.30;99.90;;;;;;5093991;27;20062;-76
2022/11/05 10:01:05;;;;;;;9.18;7.05;;;9.40;99.90;;;;;;5107665;27;20521;-75
2022/11/05 10:03:37;;;;;;;9.82;6.60;;;9.50;99.90;;;;;;5104785;27;20568;-75
2022/11/05 10:06:08;;;;;;;9.73;6.80;;;9.50;99.90;;;;;;5118339;27;20095;-71
2022/11/05 10:08:40;;;;;;;9.90;6.40;;;9.60;99.90;;;;;;5101530;28;20124;-71
2022/11/05 10:11:37;;;;;;;9.65;6.60;;;9.60;99.90;;;;;;5108794;27;20191;-75
2022/11/05 10:14:15;;;;;;;11.20;6.50;;;9.70;99.90;;;;;;5014661;28;20053;-70
2022/11/05 10:16:45;;;;;;;9.98;6.22;;;9.80;99.90;;;;;;5115062;27;20038;-71
2022/11/05 10:19:11;;;;;;;9.07;6.75;;;9.90;99.90;;;;;;5145180;27;20040;-75
2022/11/05 10:21:37;;;;;;;11.68;6.65;;;9.90;99.90;;;;;;5112905;27;20512;-75
2022/11/05 10:24:14;;;;;;;9.80;6.03;;;10.00;99.90;;;;;;5073624;27;20081;-75
2022/11/05 10:26:40;;;;;;;9.40;5.90;;;10.10;99.90;;;;;;5098582;28;20058;-76
2022/11/05 10:29:06;;;;;;;8.98;5.03;;;10.20;99.90;;;;;;5102005;27;20051;-71
2022/11/05 10:31:36;;;;;;;8.80;5.80;;;10.20;99.90;;;;;;5103828;28;20053;-71
2022/11/05 10:34:05;;;;;;;9.35;4.32;;;10.20;99.90;;;;;;5110684;27;20048;-71
2022/11/05 10:36:35;;;;;;;8.20;4.38;;;10.30;99.90;;;;;;5140440;27;20814;-71
2022/11/05 10:39:11;;;;;;;8.43;4.30;;;10.30;99.90;;;;;;5100843;28;20031;-76
2022/11/05 10:41:49;;;;;;;6.38;4.03;;;10.40;99.90;;;;;;5139171;27;20047;-75
2022/11/05 10:44:31;;;;;;;8.15;4.60;;;10.40;99.90;;;;;;5130070;27;20039;-75
2022/11/05 10:47:34;;;;;;;7.18;4.10;;;10.50;99.90;;;;;;5092625;28;20040;-76
2022/11/05 10:50:03;;;;;;;8.50;3.55;;;10.60;99.90;;;;;;5116975;28;20058;-72
2022/11/05 10:52:39;;;;;;;8.68;3.70;;;10.60;99.90;;;;;;5111361;27;20043;-71
2022/11/05 10:55:16;;;;;;;5.78;3.20;;;10.70;99.90;;;;;;5116372;27;20462;-75
2022/11/05 10:57:42;;;;;;;8.77;4.18;;;10.70;99.90;;;;;;5099279;27;20118;-76
2022/11/05 11:00:31;;;;;;;5.97;3.50;;;10.70;99.90;;;;;;5123633;27;20524;-75
2022/11/05 11:03:04;;;;;;;7.60;4.00;;;10.70;99.90;;;;;;5112890;27;20056;-70
2022/11/05 11:05:38;;;;;;;5.28;3.30;;;10.70;99.90;;;;;;5106646;27;20410;-71
2022/11/05 11:08:13;;;;;;;5.45;3.17;;;10.80;99.90;;;;;;5101965;28;20100;-70
2022/11/05 11:10:46;;;;;;;6.93;3.40;;;10.80;99.90;;;;;;5116869;27;20397;-70
2022/11/05 11:13:21;;;;;;;7.78;3.55;;;10.80;99.90;;;;;;5145425;27;20077;-70
2022/11/05 11:15:49;;;;;;;8.43;4.00;;;10.80;99.90;;;;;;5121187;27;20047;-70
2022/11/05 11:18:30;;;;;;;7.53;3.63;;;10.80;99.90;;;;;;5144344;27;20039;-70
2022/11/05 11:21:10;;;;;;;7.05;4.07;;;10.90;99.90;;;;;;5117144;27;20048;-75
2022/11/05 11:23:38;;;;;;;6.10;3.42;;;11.00;99.90;;;;;;5128514;27;20374;-75
2022/11/05 11:26:04;;;;;;;7.57;3.42;;;11.00;99.90;;;;;;5092079;27;20074;-76
2022/11/05 11:28:34;;;;;;;6.65;2.70;;;11.00;99.90;;;;;;5091998;28;20446;-76
2022/11/05 11:31:08;;;;;;;5.93;2.83;;;11.10;99.90;;;;;;5108805;27;20518;-76
2022/11/05 11:33:36;;;;;;;5.75;2.70;;;11.20;99.90;;;;;;5116868;27;20042;-75
2022/11/05 11:36:04;;;;;;;8.13;3.05;;;11.30;99.90;;;;;;5092668;28;20113;-76
2022/11/05 11:38:32;;;;;;;6.97;2.70;;;11.30;99.90;;;;;;5077136;27;20058;-73
2022/11/05 11:41:10;;;;;;;5.35;2.20;;;11.40;99.90;;;;;;5146450;27;20039;-75
2022/11/05 11:43:38;;;;;;;5.68;2.17;;;11.50;99.90;;;;;;5105011;27;20161;-75
2022/11/05 11:46:16;;;;;;;7.82;3.25;;;11.50;99.90;;;;;;5127160;27;20524;-74
2022/11/05 11:48:46;;;;;;;5.10;2.28;;;11.50;99.90;;;;;;5108369;27;20075;-75
2022/11/05 11:51:39;;;;;;;4.30;2.20;;;11.50;99.90;;;;;;5110008;27;20508;-75
2022/11/05 11:54:17;;;;;;;4.97;1.83;;;11.40;99.90;;;;;;5098971;27;20039;-75
2022/11/05 11:56:45;;;;;;;3.97;2.00;;;11.40;99.90;;;;;;5090471;27;20075;-76
2022/11/05 11:59:26;;;;;;;6.60;1.95;;;11.30;99.90;;;;;;5096667;27;20052;-75
2022/11/05 12:02:04;;;;;;;5.05;1.90;;;11.30;99.90;;;;;;5109104;27;20067;-76
2022/11/05 12:04:48;;;;;;;4.47;1.92;;;11.20;99.90;;;;;;5111401;27;20043;-75
2022/11/05 12:07:39;;;;;;;5.32;1.83;;;11.20;99.90;;;;;;5112422;27;20505;-75
2022/11/05 12:10:20;;;;;;;5.43;2.38;;;11.20;99.90;;;;;;5116036;27;20693;-75
2022/11/05 12:12:55;;;;;;;4.45;2.20;;;11.10;99.90;;;;;;5149696;27;20043;-76
2022/11/05 12:15:45;;;;;;;3.00;1.77;;;11.10;99.90;;;;;;5100957;28;20085;-75
2022/11/05 12:18:27;;;;;;;5.25;2.20;;;11.10;99.90;;;;;;5156555;27;20031;-76
2022/11/05 12:21:04;;;;;;;6.28;2.50;;;11.10;99.90;;;;;;5112122;27;20074;-75
2022/11/05 12:23:52;;;;;;;7.07;2.80;;;11.10;99.90;;;;;;5107001;27;20047;-76
2022/11/05 12:26:39;;;;;;;6.55;2.65;;;11.10;99.90;;;;;;5131898;27;20051;-76
2022/11/05 12:29:11;;;;;;;5.00;2.28;;;11.10;99.90;;;;;;5105551;27;20792;-76
2022/11/05 12:31:58;;;;;;;6.35;2.42;;;11.20;99.90;;;;;;5118791;27;20047;-76
2022/11/05 12:34:59;;;;;;;7.55;3.42;;;11.20;99.90;;;;;;5110545;27;20044;-76
2022/11/05 12:37:35;;;;;;;5.55;2.33;;;11.20;99.90;;;;;;5132029;27;20713;-76
2022/11/05 12:40:12;;;;;;;5.00;2.58;;;11.20;99.90;;;;;;5119572;27;20042;-76
2022/11/05 12:42:56;;;;;;;6.40;2.88;;;11.20;99.90;;;;;;5120542;27;20043;-76
2022/11/05 12:45:28;;;;;;;4.38;2.30;;;11.20;99.90;;;;;;5098951;27;20046;-76
2022/11/05 12:47:56;;;;;;;7.45;3.33;;;11.20;99.90;;;;;;5117453;27;20051;-76
2022/11/05 12:50:42;;;;;;;4.90;3.08;;;11.20;99.90;;;;;;5117426;27;20043;-76
2022/11/05 12:53:19;;;;;;;5.50;2.85;;;11.20;99.90;;;;;;5145060;27;20051;-75
2022/11/05 12:55:48;;;;;;;6.55;3.90;;;11.20;99.90;;;;;;5098543;27;20084;-77
2022/11/05 12:58:22;;;;;;;6.78;3.47;;;11.20;99.90;;;;;;5143839;27;20044;-77
2022/11/05 13:00:56;;;;;;;7.80;4.25;;;11.20;99.90;;;;;;5100921;28;20490;-77
2022/11/05 13:03:43;;;;;;;8.85;4.40;;;11.20;99.90;;;;;;5098763;27;20128;-77
2022/11/05 13:06:13;;;;;;;6.80;3.97;;;11.20;99.90;;;;;;5151762;27;20043;-77
2022/11/05 13:08:48;;;;;;;9.73;4.43;;;11.20;99.90;;;;;;5128368;27;20094;-77
2022/11/05 13:11:45;;;;;;;8.40;4.38;;;11.20;99.90;;;;;;5118825;27;20054;-77
2022/11/05 13:14:37;;;;;;;9.10;4.15;;;11.20;99.90;;;;;;5116282;27;20051;-76
2022/11/05 13:17:09;;;;;;;9.20;4.43;;;11.20;99.90;;;;;;5103772;27;20364;-76
2022/11/05 13:19:55;;;;;;;9.73;4.95;;;11.20;99.90;;;;;;5132500;27;20056;-77
2022/11/05 13:22:42;;;;;;;9.15;4.70;;;11.30;99.90;;;;;;5107074;27;20040;-76
2022/11/05 13:25:18;;;;;;;10.77;4.50;;;11.30;99.90;;;;;;5115418;27;20051;-77
2022/11/05 13:27:51;;;;;;;10.82;4.55;;;11.30;99.90;;;;;;5132439;27;20078;-76
2022/11/05 13:30:23;;;;;;;8.15;4.38;;;11.40;99.90;;;;;;5111713;27;20071;-71
2022/11/05 13:33:15;;;;;;;8.35;4.55;;;11.40;99.90;;;;;;5093619;27;20052;-71
2022/11/05 13:38:59;;;;;;;8.50;4.82;;;11.40;99.90;;;;;;5118630;27;20043;-77
2022/11/05 13:41:43;;;;;;;8.48;4.75;;;11.50;99.90;;;;;;5094686;27;20047;-77
2022/11/05 13:44:24;;;;;;;8.00;4.88;;;11.50;99.90;;;;;;5119864;27;20047;-77
2022/11/05 13:47:08;;;;;;;9.45;5.72;;;11.50;99.90;;;;;;5095766;27;20047;-76
2022/11/05 13:50:05;;;;;;;9.65;4.68;;;11.50;99.90;;;;;;5117434;27;20046;-76
2022/11/05 13:52:49;;;;;;;8.57;5.10;;;11.50;99.90;;;;;;5121324;27;20047;-76
2022/11/05 13:55:49;;;;;;;8.75;5.00;;;11.50;99.90;;;;;;5127663;27;20042;-77
2022/11/05 13:58:46;;;;;;;8.90;5.00;;;11.50;99.90;;;;;;5104724;27;20051;-76